sensor_id;sensor_type;location;lat;lon;timestamp;pressure;altitude;pressure_sealevel;temperature;humidity
64253;BME280;50592;52.958;-7.470;2022-11-27T00:01:32;99538.31;;;9.57;100.00
64253;BME280;50592;52.958;-7.470;2022-11-27T00:03:59;99544.72;;;9.54;100.00
64253;BME280;50592;52.958;-7.470;2022-11-27T00:06:29;99542.75;;;9.57;100.00
64253;BME280;50592;52.958;-7.470;2022-11-27T00:08:57;99552.63;;;9.54;100.00
64253;BME280;50592;52.958;-7.470;2022-11-27T00:11:28;99545.03;;;9.51;100.00
64253;BME280;50592;52.958;-7.470;2022-11-27T00:13:55;99547.16;;;9.48;100.00
64253;BME280;50592;52.958;-7.470;2022-11-27T00:16:26;99560.88;;;9.51;100.00
64253;BME280;50592;52.958;-7.470;2022-11-27T00:18:57;99574.56;;;9.55;100.00
64253;BME280;50592;52.958;-7.470;2022-11-27T00:21:27;99559.56;;;9.55;100.00
64253;BME280;50592;52.958;-7.470;2022-11-27T00:23:59;99560.69;;;9.53;100.00
64253;BME280;50592;52.958;-7.470;2022-11-27T00:26:30;99567.94;;;9.51;100.00
64253;BME280;50592;52.958;-7.470;2022-11-27T00:29:00;99568.94;;;9.50;100.00
64253;BME280;50592;52.958;-7.470;2022-11-27T00:31:32;99576.84;;;9.50;100.00
64253;BME280;50592;52.958;-7.470;2022-11-27T00:34:03;99576.50;;;9.45;100.00
64253;BME280;50592;52.958;-7.470;2022-11-27T00:36:34;99576.00;;;9.41;100.00
64253;BME280;50592;52.958;-7.470;2022-11-27T00:39:16;99591.31;;;9.37;100.00
64253;BME280;50592;52.958;-7.470;2022-11-27T00:43:03;99577.56;;;9.25;100.00
64253;BME280;50592;52.958;-7.470;2022-11-27T00:45:35;99587.13;;;9.26;100.00
64253;BME280;50592;52.958;-7.470;2022-11-27T00:48:04;99582.66;;;9.18;100.00
64253;BME280;50592;52.958;-7.470;2022-11-27T00:50:39;99589.09;;;9.24;100.00
64253;BME280;50592;52.958;-7.470;2022-11-27T00:53:12;99591.53;;;9.17;100.00
64253;BME280;50592;52.958;-7.470;2022-11-27T00:55:52;99583.28;;;9.12;100.00
64253;BME280;50592;52.958;-7.470;2022-11-27T00:58:25;99577.31;;;9.10;100.00
64253;BME280;50592;52.958;-7.470;2022-11-27T01:01:03;99585.75;;;9.14;100.00
64253;BME280;50592;52.958;-7.470;2022-11-27T01:03:38;99589.34;;;9.13;100.00
64253;BME280;50592;52.958;-7.470;2022-11-27T01:06:05;99579.97;;;9.10;100.00
64253;BME280;50592;52.958;-7.470;2022-11-27T01:08:37;99578.31;;;9.09;100.00
64253;BME280;50592;52.958;-7.470;2022-11-27T01:11:04;99585.25;;;9.10;100.00
64253;BME280;50592;52.958;-7.470;2022-11-27T01:13:36;99585.56;;;9.07;100.00
64253;BME280;50592;52.958;-7.470;2022-11-27T01:16:12;99590.28;;;9.03;100.00
64253;BME280;50592;52.958;-7.470;2022-11-27T01:18:46;99591.75;;;8.98;100.00
64253;BME280;50592;52.958;-7.470;2022-11-27T01:21:19;99587.75;;;8.93;100.00
64253;BME280;50592;52.958;-7.470;2022-11-27T01:23:57;99612.63;;;8.91;100.00
64253;BME280;50592;52.958;-7.470;2022-11-27T01:26:28;99596.75;;;8.83;100.00
64253;BME280;50592;52.958;-7.470;2022-11-27T01:29:03;99597.59;;;8.83;100.00
64253;BME280;50592;52.958;-7.470;2022-11-27T01:31:33;99599.53;;;8.81;100.00
64253;BME280;50592;52.958;-7.470;2022-11-27T01:34:17;99610.06;;;8.81;100.00
64253;BME280;50592;52.958;-7.470;2022-11-27T01:36:47;99615.50;;;8.79;100.00
64253;BME280;50592;52.958;-7.470;2022-11-27T01:39:20;99619.97;;;8.79;100.00
64253;BME280;50592;52.958;-7.470;2022-11-27T01:41:52;99612.69;;;8.73;100.00
64253;BME280;50592;52.958;-7.470;2022-11-27T01:47:05;99601.22;;;8.64;100.00
64253;BME280;50592;52.958;-7.470;2022-11-27T01:49:51;99612.38;;;8.58;100.00
64253;BME280;50592;52.958;-7.470;2022-11-27T01:52:22;99601.88;;;8.48;100.00
64253;BME280;50592;52.958;-7.470;2022-11-27T01:55:05;99598.38;;;8.39;100.00
64253;BME280;50592;52.958;-7.470;2022-11-27T01:57:42;99606.03;;;8.32;100.00
64253;BME280;50592;52.958;-7.470;2022-11-27T02:00:14;99619.66;;;8.27;100.00
64253;BME280;50592;52.958;-7.470;2022-11-27T02:02:43;99623.03;;;8.19;100.00
64253;BME280;50592;52.958;-7.470;2022-11-27T02:05:16;99615.44;;;8.16;100.00
64253;BME280;50592;52.958;-7.470;2022-11-27T02:07:44;99604.66;;;8.10;100.00
64253;BME280;50592;52.958;-7.470;2022-11-27T02:10:14;99599.00;;;8.04;100.00
64253;BME280;50592;52.958;-7.470;2022-11-27T02:15:38;99618.72;;;8.00;100.00
64253;BME280;50592;52.958;-7.470;2022-11-27T02:27:10;99623.06;;;7.91;100.00
64253;BME280;50592;52.958;-7.470;2022-11-27T02:29:34;99623.88;;;7.92;100.00
64253;BME280;50592;52.958;-7.470;2022-11-27T02:34:45;99622.94;;;7.93;100.00
64253;BME280;50592;52.958;-7.470;2022-11-27T02:37:24;99622.25;;;7.91;100.00
64253;BME280;50592;52.958;-7.470;2022-11-27T02:42:56;99627.78;;;7.88;100.00
64253;BME280;50592;52.958;-7.470;2022-11-27T02:45:37;99635.69;;;7.88;100.00
64253;BME280;50592;52.958;-7.470;2022-11-27T02:48:09;99627.94;;;7.86;100.00
64253;BME280;50592;52.958;-7.470;2022-11-27T02:50:42;99633.06;;;7.88;100.00
64253;BME280;50592;52.958;-7.470;2022-11-27T02:53:19;99639.16;;;7.88;100.00
64253;BME280;50592;52.958;-7.470;2022-11-27T02:55:51;99629.75;;;7.86;100.00
64253;BME280;50592;52.958;-7.470;2022-11-27T02:58:24;99631.69;;;7.84;100.00
64253;BME280;50592;52.958;-7.470;2022-11-27T03:00:56;99632.81;;;7.81;100.00
64253;BME280;50592;52.958;-7.470;2022-11-27T03:03:29;99640.00;;;7.79;100.00
64253;BME280;50592;52.958;-7.470;2022-11-27T03:06:05;99646.25;;;7.78;100.00
64253;BME280;50592;52.958;-7.470;2022-11-27T03:08:41;99641.97;;;7.77;100.00
64253;BME280;50592;52.958;-7.470;2022-11-27T03:11:15;99644.06;;;7.73;100.00
64253;BME280;50592;52.958;-7.470;2022-11-27T03:13:49;99645.19;;;7.71;100.00
64253;BME280;50592;52.958;-7.470;2022-11-27T03:16:34;99655.03;;;7.68;100.00
64253;BME280;50592;52.958;-7.470;2022-11-27T03:21:42;99656.44;;;7.63;100.00
64253;BME280;50592;52.958;-7.470;2022-11-27T03:24:12;99661.56;;;7.64;100.00
64253;BME280;50592;52.958;-7.470;2022-11-27T03:26:43;99653.13;;;7.61;100.00
64253;BME280;50592;52.958;-7.470;2022-11-27T03:29:16;99654.22;;;7.58;100.00
64253;BME280;50592;52.958;-7.470;2022-11-27T03:31:45;99658.81;;;7.56;100.00
64253;BME280;50592;52.958;-7.470;2022-11-27T03:34:16;99656.72;;;7.60;100.00
64253;BME280;50592;52.958;-7.470;2022-11-27T03:36:44;99659.47;;;7.58;100.00
64253;BME280;50592;52.958;-7.470;2022-11-27T03:39:13;99667.50;;;7.56;100.00
64253;BME280;50592;52.958;-7.470;2022-11-27T03:44:38;99665.88;;;7.45;100.00
64253;BME280;50592;52.958;-7.470;2022-11-27T03:47:20;99669.09;;;7.39;100.00
64253;BME280;50592;52.958;-7.470;2022-11-27T03:56:12;99671.19;;;7.36;100.00
64253;BME280;50592;52.958;-7.470;2022-11-27T03:58:57;99656.25;;;7.36;100.00
64253;BME280;50592;52.958;-7.470;2022-11-27T04:01:26;99672.56;;;7.40;100.00
64253;BME280;50592;52.958;-7.470;2022-11-27T04:03:55;99668.53;;;7.45;100.00
64253;BME280;50592;52.958;-7.470;2022-11-27T04:06:22;99665.88;;;7.45;100.00
64253;BME280;50592;52.958;-7.470;2022-11-27T04:08:50;99675.47;;;7.47;100.00
64253;BME280;50592;52.958;-7.470;2022-11-27T04:11:17;99672.28;;;7.43;100.00
64253;BME280;50592;52.958;-7.470;2022-11-27T04:13:46;99665.66;;;7.39;100.00
64253;BME280;50592;52.958;-7.470;2022-11-27T04:16:12;99665.25;;;7.34;100.00
64253;BME280;50592;52.958;-7.470;2022-11-27T04:18:41;99664.97;;;7.27;100.00
64253;BME280;50592;52.958;-7.470;2022-11-27T04:21:08;99674.94;;;7.23;100.00
64253;BME280;50592;52.958;-7.470;2022-11-27T04:23:39;99669.16;;;7.19;100.00
64253;BME280;50592;52.958;-7.470;2022-11-27T04:26:09;99665.28;;;7.14;100.00
64253;BME280;50592;52.958;-7.470;2022-11-27T04:28:38;99675.13;;;7.12;100.00
64253;BME280;50592;52.958;-7.470;2022-11-27T04:31:08;99682.03;;;7.13;100.00
64253;BME280;50592;52.958;-7.470;2022-11-27T04:33:35;99683.81;;;7.12;100.00
64253;BME280;50592;52.958;-7.470;2022-11-27T04:36:05;99683.53;;;7.15;100.00
64253;BME280;50592;52.958;-7.470;2022-11-27T04:38:35;99687.69;;;7.18;100.00
64253;BME280;50592;52.958;-7.470;2022-11-27T04:41:04;99681.47;;;7.19;100.00
64253;BME280;50592;52.958;-7.470;2022-11-27T04:43:34;99681.59;;;7.17;100.00
64253;BME280;50592;52.958;-7.470;2022-11-27T04:46:04;99683.41;;;7.17;100.00
64253;BME280;50592;52.958;-7.470;2022-11-27T04:48:31;99683.00;;;7.12;100.00
64253;BME280;50592;52.958;-7.470;2022-11-27T04:51:00;99689.78;;;7.14;100.00
64253;BME280;50592;52.958;-7.470;2022-11-27T04:53:27;99685.63;;;7.12;100.00
64253;BME280;50592;52.958;-7.470;2022-11-27T04:55:56;99686.88;;;7.07;100.00
64253;BME280;50592;52.958;-7.470;2022-11-27T04:58:22;99685.78;;;7.00;100.00
64253;BME280;50592;52.958;-7.470;2022-11-27T05:00:51;99688.69;;;6.97;100.00
64253;BME280;50592;52.958;-7.470;2022-11-27T05:03:18;99684.00;;;6.91;100.00
64253;BME280;50592;52.958;-7.470;2022-11-27T05:05:56;99692.69;;;6.91;100.00
64253;BME280;50592;52.958;-7.470;2022-11-27T05:08:28;99681.50;;;6.89;100.00
64253;BME280;50592;52.958;-7.470;2022-11-27T05:11:07;99682.44;;;6.88;100.00
64253;BME280;50592;52.958;-7.470;2022-11-27T05:13:34;99684.41;;;6.86;100.00
64253;BME280;50592;52.958;-7.470;2022-11-27T05:16:03;99682.44;;;6.88;100.00
64253;BME280;50592;52.958;-7.470;2022-11-27T05:18:30;99675.84;;;6.84;100.00
64253;BME280;50592;52.958;-7.470;2022-11-27T05:21:04;99679.97;;;6.87;100.00
64253;BME280;50592;52.958;-7.470;2022-11-27T05:23:32;99676.66;;;6.85;100.00
64253;BME280;50592;52.958;-7.470;2022-11-27T05:26:01;99679.97;;;6.87;100.00
64253;BME280;50592;52.958;-7.470;2022-11-27T05:28:28;99680.09;;;6.85;100.00
64253;BME280;50592;52.958;-7.470;2022-11-27T05:30:57;99684.56;;;6.85;100.00
64253;BME280;50592;52.958;-7.470;2022-11-27T05:33:24;99681.50;;;6.79;100.00
64253;BME280;50592;52.958;-7.470;2022-11-27T05:35:53;99684.84;;;6.81;100.00
64253;BME280;50592;52.958;-7.470;2022-11-27T05:38:20;99683.44;;;6.77;100.00
64253;BME280;50592;52.958;-7.470;2022-11-27T05:40:50;99675.69;;;6.76;100.00
64253;BME280;50592;52.958;-7.470;2022-11-27T05:43:16;99674.88;;;6.75;100.00
64253;BME280;50592;52.958;-7.470;2022-11-27T05:45:46;99672.25;;;6.75;100.00
64253;BME280;50592;52.958;-7.470;2022-11-27T05:48:16;99676.38;;;6.78;100.00
64253;BME280;50592;52.958;-7.470;2022-11-27T05:50:42;99667.81;;;6.76;100.00
64253;BME280;50592;52.958;-7.470;2022-11-27T05:53:14;99668.78;;;6.75;100.00
64253;BME280;50592;52.958;-7.470;2022-11-27T05:55:44;99674.88;;;6.75;100.00
64253;BME280;50592;52.958;-7.470;2022-11-27T05:58:13;99670.28;;;6.77;100.00
64253;BME280;50592;52.958;-7.470;2022-11-27T06:00:43;99670.28;;;6.77;100.00
64253;BME280;50592;52.958;-7.470;2022-11-27T06:03:13;99673.47;;;6.81;100.00
64253;BME280;50592;52.958;-7.470;2022-11-27T06:05:43;99664.22;;;6.77;100.00
64253;BME280;50592;52.958;-7.470;2022-11-27T06:08:10;99669.50;;;6.77;100.00
64253;BME280;50592;52.958;-7.470;2022-11-27T06:10:39;99665.47;;;6.73;100.00
64253;BME280;50592;52.958;-7.470;2022-11-27T06:13:06;99666.44;;;6.72;100.00
64253;BME280;50592;52.958;-7.470;2022-11-27T06:15:37;99650.53;;;6.73;100.00
64253;BME280;50592;52.958;-7.470;2022-11-27T06:18:08;99650.69;;;6.72;100.00
64253;BME280;50592;52.958;-7.470;2022-11-27T06:20:38;99644.59;;;6.71;100.00
64253;BME280;50592;52.958;-7.470;2022-11-27T06:23:08;99640.19;;;6.72;100.00
64253;BME280;50592;52.958;-7.470;2022-11-27T06:25:35;99642.81;;;6.72;100.00
64253;BME280;50592;52.958;-7.470;2022-11-27T06:28:04;99644.03;;;6.77;100.00
64253;BME280;50592;52.958;-7.470;2022-11-27T06:30:31;99646.53;;;6.79;100.00
64253;BME280;50592;52.958;-7.470;2022-11-27T06:33:01;99637.69;;;6.80;100.00
64253;BME280;50592;52.958;-7.470;2022-11-27T06:35:31;99639.19;;;6.82;100.00
64253;BME280;50592;52.958;-7.470;2022-11-27T06:38:00;99638.22;;;6.83;100.00
64253;BME280;50592;52.958;-7.470;2022-11-27T06:40:30;99637.13;;;6.86;100.00
64253;BME280;50592;52.958;-7.470;2022-11-27T06:43:00;99642.25;;;6.88;100.00
64253;BME280;50592;52.958;-7.470;2022-11-27T06:45:30;99637.78;;;6.88;100.00
64253;BME280;50592;52.958;-7.470;2022-11-27T06:47:59;99633.25;;;6.90;100.00
64253;BME280;50592;52.958;-7.470;2022-11-27T06:50:29;99630.75;;;6.89;100.00
64253;BME280;50592;52.958;-7.470;2022-11-27T06:52:59;99631.59;;;6.89;100.00
64253;BME280;50592;52.958;-7.470;2022-11-27T06:55:26;99631.72;;;6.88;100.00
64253;BME280;50592;52.958;-7.470;2022-11-27T06:57:56;99629.25;;;6.86;100.00
64253;BME280;50592;52.958;-7.470;2022-11-27T07:00:25;99624.81;;;6.87;100.00
64253;BME280;50592;52.958;-7.470;2022-11-27T07:02:53;99628.28;;;6.87;100.00
64253;BME280;50592;52.958;-7.470;2022-11-27T07:05:23;99625.63;;;6.87;100.00
64253;BME280;50592;52.958;-7.470;2022-11-27T07:07:53;99617.75;;;6.87;100.00
64253;BME280;50592;52.958;-7.470;2022-11-27T07:10:20;99617.19;;;6.83;100.00
64253;BME280;50592;52.958;-7.470;2022-11-27T07:12:49;99615.69;;;6.81;100.00
64253;BME280;50592;52.958;-7.470;2022-11-27T07:15:15;99604.22;;;6.72;100.00
64253;BME280;50592;52.958;-7.470;2022-11-27T07:17:45;99599.81;;;6.73;100.00
64253;BME280;50592;52.958;-7.470;2022-11-27T07:20:15;99601.88;;;6.69;100.00
64253;BME280;50592;52.958;-7.470;2022-11-27T07:22:41;99594.28;;;6.66;100.00
64253;BME280;50592;52.958;-7.470;2022-11-27T07:25:11;99597.88;;;6.65;100.00
64253;BME280;50592;52.958;-7.470;2022-11-27T07:27:41;99593.59;;;6.64;100.00
64253;BME280;50592;52.958;-7.470;2022-11-27T07:30:08;99591.13;;;6.62;100.00
64253;BME280;50592;52.958;-7.470;2022-11-27T07:32:38;99590.00;;;6.65;100.00
64253;BME280;50592;52.958;-7.470;2022-11-27T07:35:05;99583.78;;;6.66;100.00
64253;BME280;50592;52.958;-7.470;2022-11-27T07:37:35;99591.66;;;6.66;100.00
64253;BME280;50592;52.958;-7.470;2022-11-27T07:40:05;99594.13;;;6.67;100.00
64253;BME280;50592;52.958;-7.470;2022-11-27T07:42:32;99587.22;;;6.66;100.00
64253;BME280;50592;52.958;-7.470;2022-11-27T07:45:01;99583.63;;;6.67;100.00
64253;BME280;50592;52.958;-7.470;2022-11-27T07:47:28;99575.09;;;6.65;100.00
64253;BME280;50592;52.958;-7.470;2022-11-27T07:49:58;99574.09;;;6.66;100.00
64253;BME280;50592;52.958;-7.470;2022-11-27T07:52:28;99575.75;;;6.67;100.00
64253;BME280;50592;52.958;-7.470;2022-11-27T07:54:55;99578.25;;;6.69;100.00
64253;BME280;50592;52.958;-7.470;2022-11-27T07:57:26;99569.56;;;6.68;100.00
64253;BME280;50592;52.958;-7.470;2022-11-27T07:59:53;99569.56;;;6.68;100.00
64253;BME280;50592;52.958;-7.470;2022-11-27T08:02:22;99567.72;;;6.69;100.00
64253;BME280;50592;52.958;-7.470;2022-11-27T08:04:48;99568.56;;;6.69;100.00
64253;BME280;50592;52.958;-7.470;2022-11-27T08:07:18;99563.59;;;6.76;100.00
64253;BME280;50592;52.958;-7.470;2022-11-27T08:09:45;99557.22;;;6.79;100.00
64253;BME280;50592;52.958;-7.470;2022-11-27T08:12:14;99554.03;;;6.85;100.00
64253;BME280;50592;52.958;-7.470;2022-11-27T08:14:40;99544.22;;;6.87;100.00
64253;BME280;50592;52.958;-7.470;2022-11-27T08:17:11;99546.53;;;6.90;100.00
64253;BME280;50592;52.958;-7.470;2022-11-27T08:19:38;99542.13;;;6.91;100.00
64253;BME280;50592;52.958;-7.470;2022-11-27T08:22:15;99534.63;;;6.96;100.00
64253;BME280;50592;52.958;-7.470;2022-11-27T08:24:41;99533.69;;;6.87;100.00
64253;BME280;50592;52.958;-7.470;2022-11-27T08:27:11;99534.91;;;6.93;100.00
64253;BME280;50592;52.958;-7.470;2022-11-27T08:29:41;99533.81;;;6.95;100.00
64253;BME280;50592;52.958;-7.470;2022-11-27T08:32:08;99539.75;;;6.98;100.00
64253;BME280;50592;52.958;-7.470;2022-11-27T08:34:38;99544.69;;;7.01;100.00
64253;BME280;50592;52.958;-7.470;2022-11-27T08:37:08;99541.81;;;7.04;100.00
64253;BME280;50592;52.958;-7.470;2022-11-27T08:39:38;99538.50;;;7.02;100.00
64253;BME280;50592;52.958;-7.470;2022-11-27T08:42:04;99541.13;;;7.02;100.00
64253;BME280;50592;52.958;-7.470;2022-11-27T08:44:34;99535.72;;;7.03;100.00
64253;BME280;50592;52.958;-7.470;2022-11-27T08:47:01;99543.59;;;7.03;100.00
64253;BME280;50592;52.958;-7.470;2022-11-27T08:49:30;99541.53;;;7.07;100.00
64253;BME280;50592;52.958;-7.470;2022-11-27T08:51:56;99538.75;;;7.09;100.00
64253;BME280;50592;52.958;-7.470;2022-11-27T08:54:25;99543.44;;;7.15;100.00
64253;BME280;50592;52.958;-7.470;2022-11-27T08:56:52;99530.81;;;7.18;100.00
64253;BME280;50592;52.958;-7.470;2022-11-27T08:59:21;99527.47;;;7.26;100.00
64253;BME280;50592;52.958;-7.470;2022-11-27T09:01:47;99514.56;;;7.33;100.00
64253;BME280;50592;52.958;-7.470;2022-11-27T09:04:17;99523.25;;;7.43;100.00
64253;BME280;50592;52.958;-7.470;2022-11-27T09:06:44;99520.03;;;7.50;100.00
64253;BME280;50592;52.958;-7.470;2022-11-27T09:09:15;99533.38;;;7.56;100.00
64253;BME280;50592;52.958;-7.470;2022-11-27T09:11:41;99530.50;;;7.60;100.00
64253;BME280;50592;52.958;-7.470;2022-11-27T09:14:10;99524.78;;;7.64;100.00
64253;BME280;50592;52.958;-7.470;2022-11-27T09:16:37;99522.66;;;7.68;100.00
64253;BME280;50592;52.958;-7.470;2022-11-27T09:19:07;99531.34;;;7.78;100.00
64253;BME280;50592;52.958;-7.470;2022-11-27T09:21:37;99521.56;;;7.89;100.00
64253;BME280;50592;52.958;-7.470;2022-11-27T09:24:08;99516.38;;;7.97;100.00
64253;BME280;50592;52.958;-7.470;2022-11-27T09:26:37;99519.56;;;8.01;100.00
64253;BME280;50592;52.958;-7.470;2022-11-27T09:29:07;99512.16;;;8.04;100.00
64253;BME280;50592;52.958;-7.470;2022-11-27T09:31:37;99518.78;;;8.09;100.00
64253;BME280;50592;52.958;-7.470;2022-11-27T09:34:04;99513.38;;;8.10;100.00
64253;BME280;50592;52.958;-7.470;2022-11-27T09:36:33;99522.31;;;8.17;100.00
64253;BME280;50592;52.958;-7.470;2022-11-27T09:38:59;99514.25;;;8.19;100.00
64253;BME280;50592;52.958;-7.470;2022-11-27T09:47:17;99518.69;;;8.37;100.00
64253;BME280;50592;52.958;-7.470;2022-11-27T09:49:53;99513.56;;;8.35;100.00
64253;BME280;50592;52.958;-7.470;2022-11-27T09:53:05;99512.03;;;8.51;100.00
64253;BME280;50592;52.958;-7.470;2022-11-27T09:55:41;99517.56;;;8.58;100.00
64253;BME280;50592;52.958;-7.470;2022-11-27T10:01:13;99528.53;;;8.71;100.00
64253;BME280;50592;52.958;-7.470;2022-11-27T10:03:44;99532.03;;;8.80;100.00
64253;BME280;50592;52.958;-7.470;2022-11-27T10:11:47;99500.25;;;8.81;100.00
64253;BME280;50592;52.958;-7.470;2022-11-27T10:17:42;99511.47;;;8.84;100.00
64253;BME280;50592;52.958;-7.470;2022-11-27T10:31:19;99506.97;;;8.76;100.00
64253;BME280;50592;52.958;-7.470;2022-11-27T10:33:54;99508.78;;;8.75;100.00
64253;BME280;50592;52.958;-7.470;2022-11-27T10:36:42;99498.84;;;8.69;100.00
64253;BME280;50592;52.958;-7.470;2022-11-27T10:39:36;99493.91;;;8.66;100.00
64253;BME280;50592;52.958;-7.470;2022-11-27T10:42:31;99492.53;;;8.62;100.00
64253;BME280;50592;52.958;-7.470;2022-11-27T10:45:06;99487.38;;;8.52;100.00
64253;BME280;50592;52.958;-7.470;2022-11-27T10:47:37;99485.19;;;8.47;100.00
64253;BME280;50592;52.958;-7.470;2022-11-27T10:50:13;99490.09;;;8.42;100.00
64253;BME280;50592;52.958;-7.470;2022-11-27T10:53:05;99476.19;;;8.31;100.00
64253;BME280;50592;52.958;-7.470;2022-11-27T10:58:56;99484.44;;;8.10;100.00
64253;BME280;50592;52.958;-7.470;2022-11-27T11:01:46;99478.94;;;8.03;100.00
64253;BME280;50592;52.958;-7.470;2022-11-27T11:04:15;99478.22;;;7.93;100.00
64253;BME280;50592;52.958;-7.470;2022-11-27T11:06:48;99478.06;;;7.94;100.00
64253;BME280;50592;52.958;-7.470;2022-11-27T11:11:51;99474.44;;;7.96;100.00
64253;BME280;50592;52.958;-7.470;2022-11-27T11:14:25;99452.69;;;7.93;100.00
64253;BME280;50592;52.958;-7.470;2022-11-27T11:16:53;99452.41;;;7.97;100.00
64253;BME280;50592;52.958;-7.470;2022-11-27T11:19:33;99461.84;;;8.07;100.00
64253;BME280;50592;52.958;-7.470;2022-11-27T11:22:14;99456.28;;;8.11;100.00
64253;BME280;50592;52.958;-7.470;2022-11-27T11:24:50;99469.00;;;8.15;100.00
64253;BME280;50592;52.958;-7.470;2022-11-27T11:27:29;99462.16;;;8.23;100.00
64253;BME280;50592;52.958;-7.470;2022-11-27T11:30:04;99456.56;;;8.26;100.00
64253;BME280;50592;52.958;-7.470;2022-11-27T11:32:36;99443.41;;;8.26;100.00
64253;BME280;50592;52.958;-7.470;2022-11-27T11:35:36;99433.72;;;8.26;100.00
64253;BME280;50592;52.958;-7.470;2022-11-27T11:38:14;99437.84;;;8.29;100.00
64253;BME280;50592;52.958;-7.470;2022-11-27T11:41:00;99438.22;;;8.34;100.00
64253;BME280;50592;52.958;-7.470;2022-11-27T11:43:33;99418.47;;;8.38;100.00
64253;BME280;50592;52.958;-7.470;2022-11-27T11:46:16;99418.59;;;8.55;100.00
64253;BME280;50592;52.958;-7.470;2022-11-27T11:48:59;99400.72;;;8.67;100.00
64253;BME280;50592;52.958;-7.470;2022-11-27T12:00:04;99383.41;;;9.16;100.00
64253;BME280;50592;52.958;-7.470;2022-11-27T12:08:20;99366.16;;;9.30;100.00
64253;BME280;50592;52.958;-7.470;2022-11-27T12:11:15;99355.72;;;9.12;100.00
64253;BME280;50592;52.958;-7.470;2022-11-27T12:14:04;99356.03;;;9.00;100.00
64253;BME280;50592;52.958;-7.470;2022-11-27T12:21:57;99335.75;;;8.92;100.00
64253;BME280;50592;52.958;-7.470;2022-11-27T12:24:35;99327.69;;;8.94;100.00
64253;BME280;50592;52.958;-7.470;2022-11-27T12:32:32;99323.72;;;8.90;100.00
64253;BME280;50592;52.958;-7.470;2022-11-27T12:43:26;99323.94;;;9.13;100.00
64253;BME280;50592;52.958;-7.470;2022-11-27T12:51:49;99326.75;;;9.53;100.00
64253;BME280;50592;52.958;-7.470;2022-11-27T12:57:21;99307.63;;;9.51;100.00
64253;BME280;50592;52.958;-7.470;2022-11-27T12:59:56;99298.75;;;9.44;100.00
64253;BME280;50592;52.958;-7.470;2022-11-27T13:05:16;99293.44;;;9.27;100.00
64253;BME280;50592;52.958;-7.470;2022-11-27T13:08:10;99290.00;;;9.27;100.00
64253;BME280;50592;52.958;-7.470;2022-11-27T13:10:48;99274.03;;;9.28;100.00
64253;BME280;50592;52.958;-7.470;2022-11-27T13:21:07;99255.88;;;9.50;100.00
64253;BME280;50592;52.958;-7.470;2022-11-27T13:23:38;99260.81;;;9.53;100.00
64253;BME280;50592;52.958;-7.470;2022-11-27T13:26:13;99249.25;;;9.54;100.00
64253;BME280;50592;52.958;-7.470;2022-11-27T13:28:53;99250.75;;;9.49;100.00
64253;BME280;50592;52.958;-7.470;2022-11-27T13:31:30;99252.22;;;9.51;100.00
64253;BME280;50592;52.958;-7.470;2022-11-27T13:34:08;99232.81;;;9.44;100.00
64253;BME280;50592;52.958;-7.470;2022-11-27T13:36:45;99231.97;;;9.52;100.00
64253;BME280;50592;52.958;-7.470;2022-11-27T13:42:11;99215.63;;;9.57;100.00
64253;BME280;50592;52.958;-7.470;2022-11-27T13:47:28;99212.66;;;9.51;100.00
64253;BME280;50592;52.958;-7.470;2022-11-27T13:50:11;99207.22;;;9.45;100.00
64253;BME280;50592;52.958;-7.470;2022-11-27T13:53:01;99206.44;;;9.44;100.00
64253;BME280;50592;52.958;-7.470;2022-11-27T13:55:37;99194.38;;;9.41;100.00
64253;BME280;50592;52.958;-7.470;2022-11-27T13:58:08;99187.97;;;9.36;100.00
64253;BME280;50592;52.958;-7.470;2022-11-27T14:03:26;99186.28;;;9.51;100.00
64253;BME280;50592;52.958;-7.470;2022-11-27T14:05:57;99187.13;;;9.52;100.00
64253;BME280;50592;52.958;-7.470;2022-11-27T14:08:30;99167.31;;;9.56;100.00
64253;BME280;50592;52.958;-7.470;2022-11-27T14:11:08;99167.81;;;9.60;100.00
64253;BME280;50592;52.958;-7.470;2022-11-27T14:13:50;99164.34;;;9.59;100.00
64253;BME280;50592;52.958;-7.470;2022-11-27T14:18:52;99159.88;;;9.68;100.00
64253;BME280;50592;52.958;-7.470;2022-11-27T14:24:01;99146.84;;;9.66;100.00
64253;BME280;50592;52.958;-7.470;2022-11-27T14:26:34;99139.44;;;9.62;100.00
64253;BME280;50592;52.958;-7.470;2022-11-27T14:29:10;99141.44;;;9.60;100.00
64253;BME280;50592;52.958;-7.470;2022-11-27T14:31:41;99153.97;;;9.58;100.00
64253;BME280;50592;52.958;-7.470;2022-11-27T14:34:27;99143.59;;;9.48;100.00
64253;BME280;50592;52.958;-7.470;2022-11-27T14:36:58;99143.47;;;9.41;100.00
64253;BME280;50592;52.958;-7.470;2022-11-27T14:39:34;99150.06;;;9.37;100.00
64253;BME280;50592;52.958;-7.470;2022-11-27T14:42:06;99138.88;;;9.35;100.00
64253;BME280;50592;52.958;-7.470;2022-11-27T14:44:33;99138.88;;;9.35;100.00
64253;BME280;50592;52.958;-7.470;2022-11-27T14:47:05;99139.16;;;9.40;100.00
64253;BME280;50592;52.958;-7.470;2022-11-27T14:49:32;99135.56;;;9.41;100.00
64253;BME280;50592;52.958;-7.470;2022-11-27T14:52:04;99135.84;;;9.46;100.00
64253;BME280;50592;52.958;-7.470;2022-11-27T14:54:37;99144.59;;;9.47;100.00
64253;BME280;50592;52.958;-7.470;2022-11-27T14:57:15;99128.28;;;9.43;100.00
64253;BME280;50592;52.958;-7.470;2022-11-27T14:59:46;99119.91;;;9.39;100.00
64253;BME280;50592;52.958;-7.470;2022-11-27T15:02:17;99118.56;;;9.43;100.00
64253;BME280;50592;52.958;-7.470;2022-11-27T15:04:45;99114.81;;;9.38;100.00
64253;BME280;50592;52.958;-7.470;2022-11-27T15:07:26;99104.59;;;9.35;100.00
64253;BME280;50592;52.958;-7.470;2022-11-27T15:09:56;99084.47;;;9.34;100.00
64253;BME280;50592;52.958;-7.470;2022-11-27T15:12:44;99091.25;;;9.28;100.00
64253;BME280;50592;52.958;-7.470;2022-11-27T15:18:36;99101.47;;;9.31;100.00
64253;BME280;50592;52.958;-7.470;2022-11-27T15:21:17;99099.50;;;9.25;100.00
64253;BME280;50592;52.958;-7.470;2022-11-27T15:23:50;99110.72;;;9.27;100.00
64253;BME280;50592;52.958;-7.470;2022-11-27T15:26:35;99096.88;;;9.25;100.00
64253;BME280;50592;52.958;-7.470;2022-11-27T15:29:38;99094.41;;;9.15;100.00
64253;BME280;50592;52.958;-7.470;2022-11-27T15:32:19;99084.22;;;9.03;100.00
64253;BME280;50592;52.958;-7.470;2022-11-27T15:35:14;99109.09;;;9.01;100.00